createdAt,value
2019-01-24T00:01:54.201Z,79.23
2019-01-24T00:04:21.299Z,79.21
2019-01-24T00:06:53.393Z,79.14
2019-01-24T00:09:23.371Z,79.09
2019-01-24T00:11:54.779Z,79.16
2019-01-24T00:14:27.741Z,79.30
2019-01-24T00:17:03.510Z,79.43
2019-01-24T00:19:30.620Z,79.36
2019-01-24T00:21:57.733Z,79.42
2019-01-24T00:24:27.947Z,79.45
2019-01-24T00:27:00.329Z,79.40
2019-01-24T00:29:27.466Z,79.42
2019-01-24T00:31:54.567Z,79.32
2019-01-24T00:34:23.361Z,79.22
2019-01-24T00:36:50.680Z,79.39
2019-01-24T00:39:17.902Z,79.46
2019-01-24T00:41:44.985Z,79.45
2019-01-24T00:44:12.080Z,79.23
2019-01-24T00:46:39.175Z,79.08
2019-01-24T00:49:09.045Z,79.06
2019-01-24T00:51:37.909Z,78.89
2019-01-24T00:54:05.018Z,78.69
2019-01-24T00:56:34.763Z,78.62
2019-01-24T00:59:01.972Z,78.67
2019-01-24T01:01:29.347Z,78.68
2019-01-24T01:03:56.546Z,78.70
2019-01-24T01:06:25.815Z,78.74
2019-01-24T01:08:54.223Z,78.93
2019-01-24T01:11:22.479Z,79.12
2019-01-24T01:13:50.883Z,79.35
2019-01-24T01:16:18.000Z,79.42
2019-01-24T01:18:46.395Z,79.41
2019-01-24T01:21:15.397Z,79.54
2019-01-24T01:23:42.688Z,79.70
2019-01-24T01:26:11.843Z,79.87
2019-01-24T01:28:39.040Z,79.99
2019-01-24T01:31:06.418Z,80.04
2019-01-24T01:33:33.628Z,80.05
2019-01-24T01:36:02.231Z,80.15
2019-01-24T01:38:29.509Z,80.25
2019-01-24T01:40:56.870Z,80.25
2019-01-24T01:43:25.292Z,80.16
2019-01-24T01:45:52.606Z,80.01
2019-01-24T01:48:19.814Z,79.79
2019-01-24T01:50:46.926Z,79.46
2019-01-24T01:53:14.142Z,79.15
2019-01-24T01:55:42.352Z,78.93
2019-01-24T01:58:09.683Z,78.84
2019-01-24T02:00:37.034Z,78.87
2019-01-24T02:03:05.555Z,79.05
2019-01-24T02:05:34.644Z,78.99
2019-01-24T02:08:01.986Z,79.06
2019-01-24T02:10:29.126Z,78.92
2019-01-24T02:12:56.385Z,78.83
2019-01-24T02:15:23.832Z,78.78
2019-01-24T02:17:51.091Z,78.76
2019-01-24T02:20:20.079Z,78.76
2019-01-24T02:22:47.280Z,78.81
2019-01-24T02:25:14.396Z,78.83
2019-01-24T02:27:41.613Z,78.81
2019-01-24T02:30:12.567Z,78.79
2019-01-24T02:32:39.677Z,78.81
2019-01-24T02:35:07.688Z,78.76
2019-01-24T02:37:34.796Z,78.67
2019-01-24T02:40:02.296Z,78.67
2019-01-24T02:42:29.405Z,78.64
2019-01-24T02:44:56.517Z,78.62
2019-01-24T02:47:23.625Z,78.66
2019-01-24T02:49:50.726Z,78.51
2019-01-24T02:52:17.870Z,78.45
2019-01-24T02:54:44.999Z,78.59
2019-01-24T02:57:12.101Z,78.85
2019-01-24T02:59:39.201Z,79.29
2019-01-24T03:02:06.350Z,79.50
2019-01-24T03:04:35.751Z,79.42
2019-01-24T03:07:03.293Z,79.28
2019-01-24T03:09:30.391Z,79.34
2019-01-24T03:11:57.524Z,79.25
2019-01-24T03:14:24.629Z,79.11
2019-01-24T03:16:51.730Z,78.88
2019-01-24T03:19:18.833Z,78.70
2019-01-24T03:21:45.944Z,78.50
2019-01-24T03:24:13.053Z,78.35
2019-01-24T03:26:40.152Z,78.25
2019-01-24T03:29:07.258Z,78.20
2019-01-24T03:31:34.364Z,78.18
2019-01-24T03:34:01.480Z,78.08
2019-01-24T03:36:28.581Z,77.97
2019-01-24T03:38:55.708Z,78.02
2019-01-24T03:41:22.809Z,78.19
2019-01-24T03:43:49.916Z,78.18
2019-01-24T03:46:17.014Z,78.05
2019-01-24T03:48:44.124Z,77.95
2019-01-24T03:51:11.235Z,77.91
2019-01-24T03:53:38.355Z,77.81
2019-01-24T03:56:05.470Z,77.95
2019-01-24T03:58:32.573Z,77.93
2019-01-24T04:00:59.676Z,77.92
2019-01-24T04:03:26.778Z,77.90
2019-01-24T04:05:53.914Z,77.85
2019-01-24T04:08:21.045Z,77.77
2019-01-24T04:10:48.182Z,77.84
2019-01-24T04:13:15.293Z,77.95
2019-01-24T04:15:42.411Z,78.08
2019-01-24T04:18:09.515Z,78.06
2019-01-24T04:20:36.620Z,77.96
2019-01-24T04:23:03.733Z,77.90
2019-01-24T04:25:30.847Z,78.04
2019-01-24T04:27:57.957Z,77.95
2019-01-24T04:30:25.062Z,78.01
2019-01-24T04:32:52.171Z,78.04
2019-01-24T04:35:20.288Z,78.15
2019-01-24T04:37:47.627Z,78.19
2019-01-24T04:40:15.803Z,78.32
2019-01-24T04:42:42.962Z,78.34
2019-01-24T04:45:10.980Z,78.34
2019-01-24T04:47:38.091Z,78.41
2019-01-24T04:50:05.809Z,78.35
2019-01-24T04:52:32.915Z,78.29
2019-01-24T04:55:00.026Z,78.24
2019-01-24T04:57:27.149Z,78.18
2019-01-24T04:59:54.245Z,78.11
2019-01-24T05:02:21.350Z,78.33
2019-01-24T05:04:48.453Z,78.20
2019-01-24T05:07:15.593Z,78.22
2019-01-24T05:09:42.679Z,78.12
2019-01-24T05:12:09.777Z,78.07
2019-01-24T05:14:36.894Z,78.36
2019-01-24T05:17:04.007Z,78.36
2019-01-24T05:19:31.107Z,78.31
2019-01-24T05:21:58.212Z,78.29
2019-01-24T05:24:25.384Z,78.27
2019-01-24T05:26:52.485Z,78.23
2019-01-24T05:29:19.585Z,78.18
2019-01-24T05:31:46.698Z,78.13
2019-01-24T05:34:13.856Z,78.13
2019-01-24T05:36:41.130Z,78.07
2019-01-24T05:39:09.518Z,78.16
2019-01-24T05:41:36.761Z,78.53
2019-01-24T05:44:05.704Z,78.53
2019-01-24T05:46:33.045Z,78.26
2019-01-24T05:49:02.008Z,78.27
2019-01-24T05:51:29.289Z,78.16
2019-01-24T05:53:57.602Z,78.31
2019-01-24T05:56:24.876Z,78.31
2019-01-24T05:58:53.958Z,78.04
2019-01-24T06:01:21.602Z,78.05
2019-01-24T06:03:48.761Z,77.96
2019-01-24T06:06:15.873Z,78.04
2019-01-24T06:08:43.145Z,78.05
2019-01-24T06:11:10.300Z,78.03
2019-01-24T06:13:37.528Z,78.06
2019-01-24T06:16:04.784Z,78.14
2019-01-24T06:18:32.158Z,78.12
2019-01-24T06:21:01.273Z,78.06
2019-01-24T06:23:28.380Z,78.06
2019-01-24T06:25:55.473Z,77.98
2019-01-24T06:28:22.584Z,77.88
2019-01-24T06:30:49.951Z,77.88
2019-01-24T06:33:19.881Z,77.98
2019-01-24T06:35:48.905Z,77.87
2019-01-24T06:38:16.312Z,77.87
2019-01-24T06:40:43.552Z,77.89
2019-01-24T06:43:10.815Z,77.78
2019-01-24T06:45:38.059Z,77.78
2019-01-24T06:48:06.512Z,77.84
2019-01-24T06:50:33.909Z,77.87
2019-01-24T06:53:01.029Z,77.89
2019-01-24T06:55:28.644Z,77.89
2019-01-24T06:57:57.660Z,77.92
2019-01-24T07:00:25.078Z,77.91
2019-01-24T07:02:54.168Z,77.91
2019-01-24T07:05:23.263Z,77.92
2019-01-24T07:07:52.304Z,77.92
2019-01-24T07:10:20.485Z,77.92
2019-01-24T07:12:51.333Z,77.81
2019-01-24T07:15:20.063Z,77.90
2019-01-24T07:17:47.220Z,77.90
2019-01-24T07:20:14.974Z,77.95
2019-01-24T07:22:42.260Z,77.99
2019-01-24T07:25:12.456Z,78.02
2019-01-24T07:27:39.738Z,78.05
2019-01-24T07:30:09.543Z,78.05
2019-01-24T07:32:38.582Z,77.78
2019-01-24T07:35:08.215Z,77.78
2019-01-24T07:37:35.568Z,77.84
2019-01-24T07:40:04.875Z,77.70
2019-01-24T07:42:31.996Z,77.70
2019-01-24T07:44:59.095Z,77.67
2019-01-24T07:47:26.447Z,77.74
2019-01-24T07:49:53.716Z,77.75
2019-01-24T07:52:21.036Z,77.67
2019-01-24T07:54:48.406Z,77.65
2019-01-24T07:57:17.327Z,77.68
2019-01-24T07:59:44.483Z,77.68
2019-01-24T08:02:11.599Z,77.81
2019-01-24T08:04:38.700Z,77.79
2019-01-24T08:07:07.070Z,78.04
2019-01-24T08:09:34.367Z,77.89
2019-01-24T08:12:01.538Z,77.89
2019-01-24T08:14:30.664Z,78.12
2019-01-24T08:16:58.085Z,78.06
2019-01-24T08:19:26.572Z,78.00
2019-01-24T08:21:53.925Z,78.20
2019-01-24T08:24:21.145Z,78.33
2019-01-24T08:26:48.432Z,78.29
2019-01-24T08:29:16.981Z,78.23
2019-01-24T08:31:44.376Z,78.36
2019-01-24T08:34:13.307Z,78.36
2019-01-24T08:36:40.708Z,78.23
2019-01-24T08:39:08.934Z,78.38
2019-01-24T08:41:36.138Z,78.38
2019-01-24T08:44:05.249Z,78.48
2019-01-24T08:46:34.178Z,78.38
2019-01-24T08:49:01.564Z,78.24
2019-01-24T08:51:29.948Z,78.24
2019-01-24T08:53:58.998Z,78.10
2019-01-24T08:56:27.231Z,78.20
2019-01-24T08:58:54.610Z,78.19
2019-01-24T09:01:21.763Z,78.19
2019-01-24T09:03:49.216Z,78.13
2019-01-24T09:06:22.539Z,78.05
2019-01-24T09:08:47.361Z,78.02
2019-01-24T09:11:14.459Z,77.67
2019-01-24T09:13:41.567Z,77.67
2019-01-24T09:16:08.680Z,77.66
2019-01-24T09:18:35.813Z,77.66
2019-01-24T09:21:03.429Z,77.81
2019-01-24T09:23:32.981Z,77.99
2019-01-24T09:26:00.143Z,78.19
2019-01-24T09:28:27.283Z,78.24
2019-01-24T09:30:54.389Z,78.27
2019-01-24T09:33:22.896Z,78.27
2019-01-24T09:35:50.186Z,78.21
2019-01-24T09:38:17.675Z,78.25
2019-01-24T09:40:45.996Z,78.26
2019-01-24T09:43:14.525Z,78.22
2019-01-24T09:45:44.561Z,78.15
2019-01-24T09:48:13.751Z,78.08
2019-01-24T09:50:42.855Z,78.13
2019-01-24T09:53:09.983Z,78.10
2019-01-24T09:55:38.998Z,78.02
2019-01-24T09:58:07.266Z,78.01
2019-01-24T10:00:36.605Z,78.01
2019-01-24T10:03:04.589Z,78.03
2019-01-24T10:05:32.096Z,78.05
2019-01-24T10:07:59.544Z,78.04
2019-01-24T10:10:27.168Z,78.07
2019-01-24T10:12:55.435Z,78.09
2019-01-24T10:15:22.897Z,78.15
2019-01-24T10:17:51.991Z,78.20
2019-01-24T10:20:21.495Z,78.13
2019-01-24T10:22:49.763Z,78.08
2019-01-24T10:25:24.330Z,78.08
2019-01-24T10:27:52.755Z,78.11
2019-01-24T10:30:21.072Z,78.11
2019-01-24T10:32:48.400Z,78.01
2019-01-24T10:35:15.601Z,77.93
2019-01-24T10:37:43.102Z,77.87
2019-01-24T10:40:13.664Z,77.82
2019-01-24T10:42:40.881Z,77.84
2019-01-24T10:45:10.652Z,77.84
2019-01-24T10:47:37.967Z,77.80
2019-01-24T10:50:06.570Z,77.80
2019-01-24T10:52:33.682Z,77.86
2019-01-24T10:55:00.794Z,77.85
2019-01-24T10:57:27.898Z,77.86
2019-01-24T10:59:58.024Z,77.86
2019-01-24T11:02:25.375Z,77.86
2019-01-24T11:04:54.327Z,77.93
2019-01-24T11:07:21.957Z,77.98
2019-01-24T11:09:50.988Z,78.04
2019-01-24T11:12:21.126Z,78.02
2019-01-24T11:14:48.379Z,77.94
2019-01-24T11:17:19.051Z,77.86
2019-01-24T11:19:46.299Z,77.87
2019-01-24T11:22:13.495Z,77.80
2019-01-24T11:24:41.748Z,77.78
2019-01-24T11:27:09.248Z,77.83
2019-01-24T11:29:39.072Z,77.80
2019-01-24T11:32:06.413Z,77.74
2019-01-24T11:34:33.523Z,77.75
2019-01-24T11:37:00.624Z,77.81
2019-01-24T11:39:27.723Z,77.86
2019-01-24T11:41:54.829Z,77.92
2019-01-24T11:44:21.995Z,78.02
2019-01-24T11:46:51.752Z,78.08
2019-01-24T11:49:18.857Z,78.20
2019-01-24T11:51:45.963Z,78.21
2019-01-24T11:54:13.058Z,78.20
2019-01-24T11:56:41.311Z,78.19
2019-01-24T11:59:11.355Z,78.15
2019-01-24T12:01:41.352Z,78.20
2019-01-24T12:04:10.589Z,78.34
2019-01-24T12:06:37.813Z,78.35
2019-01-24T12:09:07.241Z,78.46
2019-01-24T12:11:37.341Z,78.40
2019-01-24T12:14:04.435Z,78.24
2019-01-24T12:16:31.537Z,78.10
2019-01-24T12:18:58.635Z,78.11
2019-01-24T12:21:25.769Z,78.21
2019-01-24T12:23:52.859Z,78.22
2019-01-24T12:26:20.028Z,78.08
2019-01-24T12:28:47.148Z,78.05
2019-01-24T12:31:14.349Z,78.13
2019-01-24T12:33:41.607Z,78.17
2019-01-24T12:36:08.693Z,78.20
2019-01-24T12:38:35.816Z,78.21
2019-01-24T12:41:02.931Z,78.25
2019-01-24T12:43:32.812Z,78.23
2019-01-24T12:45:59.912Z,78.14
2019-01-24T12:48:27.039Z,78.15
2019-01-24T12:51:00.091Z,78.20
2019-01-24T12:53:29.907Z,78.14
2019-01-24T12:55:57.000Z,78.06
2019-01-24T12:58:26.380Z,78.05
2019-01-24T13:00:53.488Z,77.97
2019-01-24T13:03:23.735Z,77.86
2019-01-24T13:05:50.850Z,77.74
2019-01-24T13:08:17.956Z,77.83
2019-01-24T13:10:45.085Z,77.97
2019-01-24T13:13:12.204Z,77.98
2019-01-24T13:15:39.395Z,77.91
2019-01-24T13:18:06.639Z,77.82
2019-01-24T13:20:33.764Z,77.75
2019-01-24T13:23:01.123Z,77.76
2019-01-24T13:25:35.940Z,77.78
2019-01-24T13:28:04.512Z,77.74
2019-01-24T13:30:33.682Z,77.70
2019-01-24T13:33:01.256Z,77.66
2019-01-24T13:35:29.468Z,77.73
2019-01-24T13:37:58.600Z,77.72
2019-01-24T13:40:27.786Z,77.63
2019-01-24T13:42:56.949Z,77.47
2019-01-24T13:45:26.364Z,77.53
2019-01-24T13:47:53.827Z,77.66
2019-01-24T13:50:21.151Z,77.69
2019-01-24T13:52:48.506Z,77.71
2019-01-24T13:55:16.807Z,77.84
2019-01-24T13:57:44.426Z,77.92
2019-01-24T14:00:16.228Z,77.92
2019-01-24T14:02:43.427Z,77.93
2019-01-24T14:05:13.000Z,77.89
2019-01-24T14:07:40.209Z,77.83
2019-01-24T14:10:08.643Z,77.77
2019-01-24T14:12:35.736Z,77.69
2019-01-24T14:15:03.748Z,77.66
2019-01-24T14:17:30.849Z,77.62
2019-01-24T14:19:57.947Z,77.56
2019-01-24T14:22:25.077Z,77.58
2019-01-24T14:24:52.168Z,77.58
2019-01-24T14:27:19.267Z,77.53
2019-01-24T14:29:46.367Z,77.52
2019-01-24T14:32:13.465Z,77.45
2019-01-24T14:34:40.924Z,77.45
2019-01-24T14:37:08.332Z,77.47
2019-01-24T14:39:35.413Z,77.45
2019-01-24T14:42:02.506Z,77.49
2019-01-24T14:44:29.596Z,77.50
2019-01-24T14:46:56.705Z,77.50
2019-01-24T14:49:23.797Z,77.49
2019-01-24T14:51:50.891Z,77.39
2019-01-24T14:54:17.991Z,77.45
2019-01-24T14:56:45.088Z,77.52
2019-01-24T14:59:12.349Z,77.58
2019-01-24T15:01:39.608Z,77.68
2019-01-24T15:04:06.977Z,77.67
2019-01-24T15:06:35.409Z,77.71
2019-01-24T15:09:06.880Z,77.77
2019-01-24T15:11:34.000Z,77.76
2019-01-24T15:14:01.095Z,77.73
2019-01-24T15:16:28.194Z,77.74
2019-01-24T15:18:55.319Z,77.75
2019-01-24T15:21:22.525Z,77.77
2019-01-24T15:23:51.060Z,77.81
2019-01-24T15:26:18.221Z,77.84
2019-01-24T15:28:45.407Z,77.76
2019-01-24T15:31:13.735Z,77.75
2019-01-24T15:33:42.837Z,77.73
2019-01-24T15:36:11.992Z,77.73
2019-01-24T15:38:39.184Z,77.72
2019-01-24T15:41:06.425Z,77.77
2019-01-24T15:43:33.773Z,77.83
2019-01-24T15:46:01.271Z,77.87
2019-01-24T15:48:28.468Z,77.89
2019-01-24T15:50:55.777Z,77.89
2019-01-24T15:53:23.987Z,77.87
2019-01-24T15:55:51.093Z,77.86
2019-01-24T15:58:18.474Z,77.81
2019-01-24T16:00:47.520Z,77.72
2019-01-24T16:03:14.908Z,77.77
2019-01-24T16:05:42.067Z,77.89
2019-01-24T16:08:09.305Z,77.89
2019-01-24T16:10:36.541Z,77.91
2019-01-24T16:13:04.395Z,77.96
2019-01-24T16:15:34.555Z,77.92
2019-01-24T16:18:02.102Z,77.94
2019-01-24T16:20:29.915Z,77.96
2019-01-24T16:22:58.332Z,78.07
2019-01-24T16:25:27.324Z,78.10
2019-01-24T16:27:56.424Z,78.08
2019-01-24T16:30:25.926Z,78.05
2019-01-24T16:32:53.385Z,78.01
2019-01-24T16:35:22.778Z,77.88
2019-01-24T16:37:50.080Z,77.78
2019-01-24T16:40:18.534Z,77.83
2019-01-24T16:42:45.833Z,77.92
2019-01-24T16:45:15.583Z,77.88
2019-01-24T16:47:42.664Z,77.86
2019-01-24T16:50:10.600Z,77.84
2019-01-24T16:52:37.707Z,77.80
2019-01-24T16:55:06.857Z,77.85
2019-01-24T16:57:34.095Z,77.81
2019-01-24T17:00:01.193Z,77.81
2019-01-24T17:02:28.293Z,77.80
2019-01-24T17:04:55.436Z,77.78
2019-01-24T17:07:22.524Z,77.83
2019-01-24T17:09:49.645Z,77.82
2019-01-24T17:12:16.774Z,77.86
2019-01-24T17:14:43.873Z,77.84
2019-01-24T17:17:10.975Z,77.77
2019-01-24T17:19:38.085Z,77.62
2019-01-24T17:22:05.390Z,77.60
2019-01-24T17:24:32.527Z,77.62
2019-01-24T17:26:59.636Z,77.55
2019-01-24T17:29:26.764Z,77.60
2019-01-24T17:31:53.874Z,77.64
2019-01-24T17:34:20.998Z,77.58
2019-01-24T17:36:48.111Z,77.64
2019-01-24T17:39:15.224Z,77.76
2019-01-24T17:41:42.732Z,77.90
2019-01-24T17:44:11.240Z,77.86
2019-01-24T17:46:38.765Z,77.82
2019-01-24T17:49:06.029Z,77.73
2019-01-24T17:51:33.188Z,77.78
2019-01-24T17:54:02.345Z,77.88
2019-01-24T17:56:29.457Z,77.94
2019-01-24T17:58:56.784Z,77.87
2019-01-24T18:01:23.945Z,77.82
2019-01-24T18:03:51.088Z,77.81
2019-01-24T18:06:18.317Z,77.76
2019-01-24T18:08:45.437Z,77.78
2019-01-24T18:11:12.616Z,77.85
2019-01-24T18:13:39.730Z,77.78
2019-01-24T18:16:06.849Z,77.63
2019-01-24T18:18:33.969Z,77.59
2019-01-24T18:21:01.117Z,77.46
2019-01-24T18:23:28.292Z,77.36
2019-01-24T18:25:55.394Z,77.27
2019-01-24T18:28:22.492Z,77.25
2019-01-24T18:30:49.624Z,77.24
2019-01-24T18:33:16.843Z,77.27
2019-01-24T18:35:43.958Z,77.28
2019-01-24T18:38:11.069Z,77.28
2019-01-24T18:40:38.230Z,77.33
2019-01-24T18:43:15.788Z,77.36
2019-01-24T18:45:45.461Z,77.33
2019-01-24T18:48:12.793Z,77.38
2019-01-24T18:50:39.993Z,77.30
2019-01-24T18:53:07.108Z,77.20
2019-01-24T18:55:34.225Z,77.30
2019-01-24T18:58:01.419Z,77.46
2019-01-24T19:00:33.906Z,77.58
2019-01-24T19:03:01.250Z,77.58
2019-01-24T19:05:28.576Z,77.37
2019-01-24T19:07:55.730Z,77.33
2019-01-24T19:10:22.840Z,77.17
2019-01-24T19:12:49.957Z,76.95
2019-01-24T19:15:17.215Z,76.95
2019-01-24T19:17:44.760Z,77.05
2019-01-24T19:20:12.345Z,77.07
2019-01-24T19:22:39.699Z,77.01
2019-01-24T19:25:08.028Z,76.99
2019-01-24T19:27:35.153Z,76.95
2019-01-24T19:30:04.295Z,76.97
2019-01-24T19:32:31.601Z,76.99
2019-01-24T19:34:58.747Z,77.12
2019-01-24T19:37:26.237Z,77.21
2019-01-24T19:39:53.419Z,77.24
2019-01-24T19:42:20.578Z,77.24
2019-01-24T19:44:47.709Z,77.15
2019-01-24T19:47:14.937Z,77.14
2019-01-24T19:49:42.163Z,77.17
2019-01-24T19:52:09.348Z,77.16
2019-01-24T19:54:36.542Z,77.06
2019-01-24T19:57:03.875Z,77.20
2019-01-24T19:59:31.155Z,77.77
2019-01-24T20:01:58.295Z,77.77
2019-01-24T20:04:25.433Z,77.96
2019-01-24T20:06:52.749Z,78.12
2019-01-24T20:09:24.073Z,78.19
2019-01-24T20:11:54.274Z,78.03
2019-01-24T20:14:31.835Z,77.96
2019-01-24T20:17:01.850Z,77.96
2019-01-24T20:19:29.004Z,77.91
2019-01-24T20:21:58.653Z,77.91
2019-01-24T20:24:25.877Z,77.75
2019-01-24T20:26:53.047Z,78.15
2019-01-24T20:29:20.155Z,78.26
2019-01-24T20:31:47.409Z,78.26
2019-01-24T20:34:14.494Z,78.16
2019-01-24T20:36:41.939Z,78.04
2019-01-24T20:39:09.326Z,78.21
2019-01-24T20:41:36.517Z,78.25
2019-01-24T20:44:03.912Z,78.09
2019-01-24T20:46:33.142Z,77.98
2019-01-24T20:49:03.213Z,78.02
2019-01-24T20:51:33.422Z,77.87
2019-01-24T20:54:03.156Z,77.82
2019-01-24T20:56:30.281Z,77.82
2019-01-24T20:58:57.467Z,77.86
2019-01-24T21:01:27.484Z,78.05
2019-01-24T21:03:55.459Z,78.07
2019-01-24T21:06:22.766Z,77.88
2019-01-24T21:08:49.880Z,77.88
2019-01-24T21:11:17.023Z,77.82
2019-01-24T21:13:44.207Z,77.79
2019-01-24T21:16:11.339Z,77.69
2019-01-24T21:19:03.526Z,77.69
2019-01-24T21:21:37.165Z,77.89
2019-01-24T21:24:04.378Z,77.88
2019-01-24T21:26:31.558Z,77.83
2019-01-24T21:29:00.976Z,77.73
2019-01-24T21:31:28.072Z,77.70
2019-01-24T21:33:55.173Z,77.75
2019-01-24T21:36:22.676Z,77.86
2019-01-24T21:38:49.803Z,77.94
2019-01-24T21:41:16.909Z,77.97
2019-01-24T21:43:45.998Z,77.94
2019-01-24T21:46:13.136Z,78.06
2019-01-24T21:48:42.684Z,78.06
2019-01-24T21:51:11.655Z,78.00
2019-01-24T21:53:38.928Z,78.02
2019-01-24T21:56:06.023Z,77.99
2019-01-24T21:58:35.179Z,78.08
2019-01-24T22:01:02.486Z,78.19
2019-01-24T22:03:29.594Z,78.32
2019-01-24T22:05:56.715Z,78.42
2019-01-24T22:08:25.277Z,78.59
2019-01-24T22:10:52.559Z,78.72
2019-01-24T22:13:19.680Z,78.78
2019-01-24T22:15:46.784Z,78.87
2019-01-24T22:18:13.938Z,78.94
2019-01-24T22:20:41.028Z,79.05
2019-01-24T22:23:08.145Z,79.22
2019-01-24T22:25:35.348Z,79.33
2019-01-24T22:28:02.551Z,79.46
2019-01-24T22:30:37.870Z,79.58
2019-01-24T22:33:05.480Z,79.94
2019-01-24T22:35:32.615Z,79.94
2019-01-24T22:37:59.816Z,80.03
2019-01-24T22:40:26.926Z,80.11
2019-01-24T22:42:54.044Z,80.25
2019-01-24T22:45:22.490Z,80.11
2019-01-24T22:47:51.492Z,80.03
2019-01-24T22:50:20.548Z,80.06
2019-01-24T22:52:47.938Z,80.06
2019-01-24T22:55:15.419Z,80.07
2019-01-24T22:57:42.829Z,80.19
2019-01-24T23:01:01.990Z,80.17
2019-01-24T23:03:50.708Z,80.19
2019-01-24T23:06:17.984Z,80.17
2019-01-24T23:08:46.961Z,80.07
2019-01-24T23:11:14.304Z,80.07
2019-01-24T23:13:41.650Z,80.17
2019-01-24T23:16:10.112Z,80.36
2019-01-24T23:18:37.375Z,80.28
2019-01-24T23:21:05.031Z,80.19
2019-01-24T23:23:32.308Z,80.16
2019-01-24T23:26:00.521Z,80.20
2019-01-24T23:28:27.656Z,80.28
2019-01-24T23:30:54.763Z,80.29
2019-01-24T23:33:21.865Z,80.26
2019-01-24T23:35:49.391Z,80.14
2019-01-24T23:38:17.843Z,80.04
2019-01-24T23:40:45.148Z,79.99
2019-01-24T23:43:12.368Z,79.98
2019-01-24T23:45:39.591Z,79.97
2019-01-24T23:48:06.733Z,79.88
2019-01-24T23:50:35.728Z,79.80
2019-01-24T23:53:04.241Z,79.76
2019-01-24T23:55:33.296Z,79.72
2019-01-24T23:58:03.308Z,79.73
